createdAt,value
2019-03-01T00:02:14.997Z,47.20
2019-03-01T00:05:24.078Z,47.10
2019-03-01T00:08:17.037Z,47.80
2019-03-01T00:11:13.124Z,47.30
2019-03-01T00:14:11.789Z,47.10
2019-03-01T00:17:25.509Z,47.10
2019-03-01T00:20:35.842Z,47.10
2019-03-01T00:23:52.453Z,47.10
2019-03-01T00:27:02.820Z,47.10
2019-03-01T00:30:28.326Z,47.40
2019-03-01T00:33:42.258Z,47.20
2019-03-01T00:36:42.810Z,47.90
2019-03-01T00:40:02.491Z,47.70
2019-03-01T00:43:12.032Z,47.80
2019-03-01T00:46:04.573Z,47.50
2019-03-01T00:48:57.092Z,47.90
2019-03-01T00:51:49.259Z,48.60
2019-03-01T00:54:41.663Z,48.40
2019-03-01T00:57:34.163Z,47.80
2019-03-01T01:00:29.139Z,48.20
2019-03-01T01:03:21.075Z,48.10
2019-03-01T01:06:13.312Z,48.00
2019-03-01T01:09:06.422Z,47.90
2019-03-01T01:11:59.306Z,48.20
2019-03-01T01:14:51.442Z,48.20
2019-03-01T01:17:43.593Z,47.90
2019-03-01T01:20:35.956Z,48.30
2019-03-01T01:23:28.079Z,48.40
2019-03-01T01:26:20.400Z,48.20
2019-03-01T01:29:12.744Z,48.50
2019-03-01T01:32:04.772Z,48.40
2019-03-01T01:34:56.796Z,47.80
2019-03-01T01:37:49.142Z,48.50
2019-03-01T01:40:41.174Z,48.20
2019-03-01T01:43:33.429Z,48.00
2019-03-01T01:46:25.844Z,47.90
2019-03-01T01:49:19.458Z,48.10
2019-03-01T01:52:11.430Z,48.30
2019-03-01T01:55:03.477Z,47.90
2019-03-01T01:57:55.908Z,47.90
2019-03-01T02:00:47.950Z,48.00
2019-03-01T02:03:40.197Z,47.40
2019-03-01T02:06:32.479Z,47.00
2019-03-01T02:09:26.653Z,47.00
2019-03-01T02:12:20.004Z,47.60
2019-03-01T02:15:13.837Z,47.80
2019-03-01T02:18:06.999Z,47.20
2019-03-01T02:20:59.724Z,47.30
2019-03-01T02:23:52.078Z,47.80
2019-03-01T02:26:44.243Z,47.20
2019-03-01T02:29:36.788Z,47.30
2019-03-01T02:32:34.436Z,47.20
2019-03-01T02:35:28.262Z,47.30
2019-03-01T02:38:26.715Z,47.10
2019-03-01T02:41:19.635Z,46.90
2019-03-01T02:44:12.120Z,46.90
2019-03-01T02:47:04.584Z,47.00
2019-03-01T02:49:56.973Z,46.70
2019-03-01T02:52:49.484Z,47.10
2019-03-01T02:55:41.540Z,46.70
2019-03-01T02:58:33.889Z,47.20
2019-03-01T03:01:26.005Z,47.30
2019-03-01T03:04:19.098Z,47.00
2019-03-01T03:07:27.199Z,47.10
2019-03-01T03:10:20.915Z,47.20
2019-03-01T03:13:13.509Z,47.30
2019-03-01T03:16:05.955Z,47.30
2019-03-01T03:18:58.491Z,47.10
2019-03-01T03:21:51.745Z,47.30
2019-03-01T03:24:44.178Z,46.90
2019-03-01T03:27:36.418Z,46.70
2019-03-01T03:30:28.399Z,47.10
2019-03-01T03:33:20.604Z,46.90
2019-03-01T03:36:13.073Z,46.70
2019-03-01T03:39:05.684Z,46.50
2019-03-01T03:41:59.075Z,46.80
2019-03-01T03:44:51.419Z,47.10
2019-03-01T03:47:45.262Z,47.10
2019-03-01T03:50:37.608Z,46.80
2019-03-01T03:53:29.921Z,47.00
2019-03-01T03:56:22.073Z,46.80
2019-03-01T03:59:14.313Z,46.50
2019-03-01T04:02:06.330Z,46.80
2019-03-01T04:04:58.674Z,46.80
2019-03-01T04:07:50.817Z,46.80
2019-03-01T04:10:53.890Z,46.30
2019-03-01T04:13:46.113Z,47.00
2019-03-01T04:16:38.477Z,46.60
2019-03-01T04:19:30.929Z,46.30
2019-03-01T04:22:23.459Z,46.20
2019-03-01T04:25:15.464Z,46.70
2019-03-01T04:28:07.749Z,46.20
2019-03-01T04:31:00.279Z,46.40
2019-03-01T04:33:55.622Z,46.50
2019-03-01T04:36:52.144Z,46.90
2019-03-01T04:39:48.303Z,46.40
2019-03-01T04:42:44.529Z,46.20
2019-03-01T04:45:40.940Z,46.40
2019-03-01T04:48:37.165Z,46.80
2019-03-01T04:51:39.938Z,46.50
2019-03-01T04:54:27.762Z,46.40
2019-03-01T04:57:20.519Z,46.60
2019-03-01T05:00:15.062Z,46.80
2019-03-01T05:03:07.542Z,46.60
2019-03-01T05:06:02.882Z,46.10
2019-03-01T05:08:56.975Z,46.70
2019-03-01T05:11:50.552Z,46.70
2019-03-01T05:14:42.541Z,47.00
2019-03-01T05:17:37.237Z,47.10
2019-03-01T05:20:31.173Z,46.80
2019-03-01T05:23:24.541Z,44.20
2019-03-01T05:26:19.877Z,44.80
2019-03-01T05:29:13.071Z,46.20
2019-03-01T05:32:10.163Z,47.00
2019-03-01T05:35:05.022Z,47.40
2019-03-01T05:38:03.099Z,48.30
2019-03-01T05:41:01.801Z,46.90
2019-03-01T05:44:02.267Z,47.80
2019-03-01T05:46:56.208Z,48.20
2019-03-01T05:49:54.687Z,49.00
2019-03-01T05:52:49.688Z,49.60
2019-03-01T05:55:46.535Z,47.30
2019-03-01T05:58:43.398Z,48.30
2019-03-01T06:01:45.009Z,49.00
2019-03-01T06:04:42.987Z,49.30
2019-03-01T06:07:57.751Z,49.80
2019-03-01T06:10:59.729Z,49.40
2019-03-01T06:14:20.601Z,48.50
2019-03-01T06:17:25.838Z,49.10
2019-03-01T06:20:42.379Z,49.90
2019-03-01T06:24:11.649Z,50.20
2019-03-01T06:27:26.682Z,48.30
2019-03-01T06:30:40.543Z,47.60
2019-03-01T06:33:45.217Z,48.80
2019-03-01T06:36:43.556Z,49.90
2019-03-01T06:40:00.141Z,50.40
2019-03-01T06:43:07.951Z,48.50
2019-03-01T06:46:11.606Z,47.50
2019-03-01T06:49:12.670Z,49.20
2019-03-01T06:52:05.995Z,49.60
2019-03-01T06:55:00.856Z,49.90
2019-03-01T06:57:54.717Z,49.00
2019-03-01T07:00:51.103Z,48.40
2019-03-01T07:03:44.910Z,49.00
2019-03-01T07:06:38.884Z,49.60
2019-03-01T07:09:42.559Z,50.30
2019-03-01T07:12:35.033Z,50.60
2019-03-01T07:15:29.083Z,50.90
2019-03-01T07:18:21.919Z,51.20
2019-03-01T07:21:15.046Z,51.70
2019-03-01T07:24:07.328Z,52.00
2019-03-01T07:27:00.315Z,52.80
2019-03-01T07:29:53.329Z,52.70
2019-03-01T07:32:45.990Z,52.90
2019-03-01T07:35:38.764Z,53.00
2019-03-01T07:38:31.643Z,50.30
2019-03-01T07:41:25.022Z,49.90
2019-03-01T07:44:18.163Z,51.00
2019-03-01T07:47:11.319Z,51.80
2019-03-01T07:50:04.527Z,52.10
2019-03-01T07:53:03.820Z,52.40
2019-03-01T07:55:57.305Z,52.70
2019-03-01T07:58:51.261Z,52.60
2019-03-01T08:01:46.632Z,53.10
2019-03-01T08:04:39.419Z,51.10
2019-03-01T08:10:42.490Z,52.30
2019-03-01T08:13:36.598Z,52.20
2019-03-01T08:16:28.889Z,52.20
2019-03-01T08:19:22.587Z,52.30
2019-03-01T08:22:16.410Z,52.50
2019-03-01T08:25:09.234Z,52.70
2019-03-01T08:28:02.027Z,53.00
2019-03-01T08:30:55.481Z,50.60
2019-03-01T08:33:48.430Z,49.90
2019-03-01T08:36:42.407Z,51.00
2019-03-01T08:39:36.617Z,51.70
2019-03-01T08:42:32.580Z,52.20
2019-03-01T08:45:23.320Z,52.30
2019-03-01T08:48:15.672Z,52.60
2019-03-01T08:51:08.086Z,52.70
2019-03-01T08:54:02.285Z,53.00
2019-03-01T08:56:54.986Z,50.60
2019-03-01T08:59:47.583Z,50.00
2019-03-01T09:02:40.213Z,51.60
2019-03-01T09:05:33.011Z,51.80
2019-03-01T09:08:26.502Z,52.40
2019-03-01T09:11:19.405Z,52.60
2019-03-01T09:14:12.217Z,52.70
2019-03-01T09:17:04.969Z,52.50
2019-03-01T09:20:00.224Z,52.70
2019-03-01T09:22:51.881Z,53.50
2019-03-01T09:25:46.078Z,49.60
2019-03-01T09:28:39.880Z,50.00
2019-03-01T09:31:37.388Z,51.50
2019-03-01T09:34:32.192Z,52.10
2019-03-01T09:37:25.985Z,52.10
2019-03-01T09:40:20.564Z,52.00
2019-03-01T09:43:24.570Z,52.10
2019-03-01T09:46:23.742Z,52.20
2019-03-01T09:49:21.349Z,52.50
2019-03-01T09:52:20.398Z,52.20
2019-03-01T09:55:16.443Z,52.60
2019-03-01T09:58:10.511Z,51.40
2019-03-01T10:01:07.977Z,49.30
2019-03-01T10:04:02.169Z,48.80
2019-03-01T10:07:02.735Z,49.40
2019-03-01T10:09:54.727Z,50.50
2019-03-01T10:12:47.175Z,51.20
2019-03-01T10:15:39.899Z,51.70
2019-03-01T10:18:32.978Z,52.00
2019-03-01T10:21:27.912Z,52.10
2019-03-01T10:24:22.418Z,52.30
2019-03-01T10:27:15.646Z,52.20
2019-03-01T10:30:08.932Z,50.90
2019-03-01T10:33:02.800Z,49.60
2019-03-01T10:35:55.881Z,50.00
2019-03-01T10:38:50.713Z,51.30
2019-03-01T10:41:43.460Z,51.40
2019-03-01T10:44:35.975Z,51.70
2019-03-01T10:47:29.231Z,52.20
2019-03-01T10:50:25.103Z,52.00
2019-03-01T10:53:18.896Z,52.20
2019-03-01T10:56:12.202Z,52.50
2019-03-01T10:59:06.180Z,49.80
2019-03-01T11:01:59.703Z,49.40
2019-03-01T11:04:52.201Z,50.70
2019-03-01T11:07:47.304Z,51.30
2019-03-01T11:10:42.685Z,51.40
2019-03-01T11:13:37.991Z,51.60
2019-03-01T11:16:32.239Z,51.80
2019-03-01T11:19:27.183Z,52.00
2019-03-01T11:22:25.027Z,52.40
2019-03-01T11:25:19.045Z,50.00
2019-03-01T11:28:17.019Z,48.80
2019-03-01T11:31:11.123Z,47.20
2019-03-01T11:34:11.593Z,47.00
2019-03-01T11:37:06.447Z,48.30
2019-03-01T11:40:01.567Z,51.10
2019-03-01T11:42:55.934Z,50.30
2019-03-01T11:45:48.688Z,48.10
2019-03-01T11:48:42.289Z,49.00
2019-03-01T11:51:35.451Z,50.00
2019-03-01T11:54:29.327Z,50.80
2019-03-01T11:57:22.455Z,50.40
2019-03-01T12:00:17.295Z,48.90
2019-03-01T12:03:15.395Z,48.80
2019-03-01T12:06:08.985Z,49.60
2019-03-01T12:09:02.923Z,49.60
2019-03-01T12:12:00.114Z,50.30
2019-03-01T12:14:51.794Z,51.10
2019-03-01T12:17:45.381Z,49.00
2019-03-01T12:20:57.764Z,49.20
2019-03-01T12:23:50.456Z,49.80
2019-03-01T12:26:42.801Z,50.10
2019-03-01T12:29:35.719Z,51.20
2019-03-01T12:32:28.668Z,50.40
2019-03-01T12:35:21.148Z,49.60
2019-03-01T12:38:13.444Z,49.20
2019-03-01T12:41:06.272Z,49.40
2019-03-01T12:43:59.048Z,50.30
2019-03-01T12:46:51.227Z,50.20
2019-03-01T12:49:43.517Z,52.60
2019-03-01T12:52:36.298Z,50.80
2019-03-01T12:55:29.102Z,50.70
2019-03-01T12:58:22.169Z,50.70
2019-03-01T13:01:14.447Z,50.60
2019-03-01T13:04:09.561Z,50.80
2019-03-01T13:07:02.885Z,50.80
2019-03-01T13:09:55.081Z,51.30
2019-03-01T13:12:47.847Z,51.60
2019-03-01T13:15:40.258Z,52.00
2019-03-01T13:18:32.765Z,52.20
2019-03-01T13:21:25.283Z,52.40
2019-03-01T13:24:17.649Z,52.70
2019-03-01T13:27:14.044Z,53.00
2019-03-01T13:30:05.025Z,53.10
2019-03-01T13:33:02.150Z,53.30
2019-03-01T13:35:52.904Z,53.20
2019-03-01T13:38:45.137Z,53.20
2019-03-01T13:41:38.011Z,53.40
2019-03-01T13:44:30.292Z,53.50
2019-03-01T13:47:22.550Z,53.60
2019-03-01T13:50:15.322Z,53.60
2019-03-01T13:53:07.733Z,53.70
2019-03-01T13:56:00.190Z,53.70
2019-03-01T13:58:54.596Z,53.70
2019-03-01T14:01:47.776Z,53.70
2019-03-01T14:04:40.358Z,53.80
2019-03-01T14:07:33.507Z,53.70
2019-03-01T14:10:25.894Z,53.60
2019-03-01T14:13:18.565Z,53.60
2019-03-01T14:16:10.727Z,53.90
2019-03-01T14:19:03.411Z,53.90
2019-03-01T14:21:55.979Z,53.80
2019-03-01T14:24:48.775Z,53.80
2019-03-01T14:27:41.355Z,53.80
2019-03-01T14:30:33.607Z,53.90
2019-03-01T14:33:26.273Z,53.90
2019-03-01T14:36:18.883Z,53.90
2019-03-01T14:39:17.938Z,53.90
2019-03-01T14:42:10.926Z,54.00
2019-03-01T14:45:06.622Z,54.10
2019-03-01T14:47:58.770Z,54.00
2019-03-01T14:50:51.723Z,54.20
2019-03-01T14:53:43.973Z,54.10
2019-03-01T14:56:38.028Z,54.10
2019-03-01T14:59:38.188Z,54.00
2019-03-01T15:02:40.834Z,53.80
2019-03-01T15:05:33.488Z,53.80
2019-03-01T15:08:25.705Z,53.80
2019-03-01T15:11:22.691Z,53.90
2019-03-01T15:14:15.639Z,53.80
2019-03-01T15:17:08.767Z,53.90
2019-03-01T15:20:01.522Z,53.80
2019-03-01T15:22:55.095Z,53.90
2019-03-01T15:25:48.723Z,53.90
2019-03-01T15:28:59.826Z,54.00
2019-03-01T15:31:55.042Z,54.00
2019-03-01T15:34:46.434Z,54.00
2019-03-01T15:37:38.827Z,53.90
2019-03-01T15:40:32.620Z,53.80
2019-03-01T15:43:26.465Z,53.90
2019-03-01T15:46:20.572Z,54.00
2019-03-01T15:49:15.146Z,53.90
2019-03-01T15:52:10.657Z,54.00
2019-03-01T15:55:03.087Z,54.10
2019-03-01T15:57:57.309Z,54.10
2019-03-01T16:00:49.669Z,54.20
2019-03-01T16:03:42.274Z,54.20
2019-03-01T16:06:34.885Z,54.00
2019-03-01T16:09:28.761Z,54.00
2019-03-01T16:12:21.566Z,54.00
2019-03-01T16:15:15.010Z,54.10
2019-03-01T16:18:07.411Z,54.00
2019-03-01T16:21:02.019Z,54.00
2019-03-01T16:23:55.915Z,54.00
2019-03-01T16:26:48.418Z,53.90
2019-03-01T16:29:42.095Z,53.90
2019-03-01T16:32:35.371Z,53.90
2019-03-01T16:35:27.887Z,53.90
2019-03-01T16:38:21.727Z,53.90
2019-03-01T16:41:14.046Z,53.80
2019-03-01T16:44:07.713Z,53.90
2019-03-01T16:47:03.452Z,53.80
2019-03-01T16:49:56.100Z,53.90
2019-03-01T16:52:49.260Z,54.00
2019-03-01T16:55:41.806Z,54.00
2019-03-01T16:58:34.506Z,54.10
2019-03-01T17:01:29.863Z,53.90
2019-03-01T17:04:21.181Z,53.50
2019-03-01T17:07:13.180Z,53.50
2019-03-01T17:10:05.632Z,53.50
2019-03-01T17:12:57.448Z,53.60
2019-03-01T17:15:49.929Z,53.60
2019-03-01T17:18:44.667Z,53.50
2019-03-01T17:21:37.559Z,53.50
2019-03-01T17:24:30.455Z,53.60
2019-03-01T17:27:22.843Z,53.50
2019-03-01T17:30:17.907Z,53.40
2019-03-01T17:33:12.817Z,53.40
2019-03-01T17:36:04.140Z,53.20
2019-03-01T17:38:56.710Z,53.40
2019-03-01T17:41:49.741Z,53.40
2019-03-01T17:44:44.594Z,53.30
2019-03-01T17:47:35.338Z,53.30
2019-03-01T17:50:27.830Z,53.30
2019-03-01T17:53:19.704Z,53.10
2019-03-01T17:56:12.146Z,53.20
2019-03-01T17:59:04.537Z,53.30
2019-03-01T18:01:56.825Z,53.30
2019-03-01T18:04:49.386Z,53.30
2019-03-01T18:07:41.727Z,53.30
2019-03-01T18:10:33.860Z,53.20
2019-03-01T18:13:26.403Z,53.20
2019-03-01T18:16:18.674Z,53.20
2019-03-01T18:19:11.118Z,53.50
2019-03-01T18:22:03.121Z,53.40
2019-03-01T18:24:56.468Z,53.40
2019-03-01T18:27:49.687Z,53.30
2019-03-01T18:30:43.135Z,53.40
2019-03-01T18:33:36.767Z,53.40
2019-03-01T18:36:31.469Z,53.40
2019-03-01T18:39:24.038Z,53.50
2019-03-01T18:42:16.150Z,53.50
2019-03-01T18:45:08.927Z,53.50
2019-03-01T18:48:01.270Z,53.40
2019-03-01T18:50:53.890Z,53.40
2019-03-01T18:53:46.214Z,53.20
2019-03-01T18:56:38.575Z,53.20
2019-03-01T18:59:31.234Z,53.20
2019-03-01T19:02:24.331Z,53.30
2019-03-01T19:05:17.830Z,53.20
2019-03-01T19:08:10.379Z,53.30
2019-03-01T19:11:02.900Z,53.40
2019-03-01T19:13:58.580Z,53.60
2019-03-01T19:16:49.898Z,53.80
2019-03-01T19:19:42.617Z,53.70
2019-03-01T19:22:35.498Z,53.90
2019-03-01T19:25:27.737Z,54.00
2019-03-01T19:28:20.301Z,54.00
2019-03-01T19:31:13.129Z,53.80
2019-03-01T19:34:05.644Z,53.50
2019-03-01T19:36:58.067Z,53.60
2019-03-01T19:39:50.566Z,53.50
2019-03-01T19:42:43.047Z,53.60
2019-03-01T19:45:37.612Z,53.30
2019-03-01T19:48:29.212Z,53.30
2019-03-01T19:51:21.538Z,53.40
2019-03-01T19:54:14.238Z,53.20
2019-03-01T19:57:06.721Z,53.40
2019-03-01T19:59:58.913Z,53.40
2019-03-01T20:02:51.586Z,53.30
2019-03-01T20:05:43.905Z,53.30
2019-03-01T20:08:36.498Z,53.10
2019-03-01T20:11:29.005Z,53.20
2019-03-01T20:14:21.379Z,53.10
2019-03-01T20:17:14.757Z,53.10
2019-03-01T20:20:07.708Z,52.90
2019-03-01T20:22:59.797Z,53.00
2019-03-01T20:25:52.230Z,53.10
2019-03-01T20:28:47.712Z,53.00
2019-03-01T20:31:40.483Z,52.90
2019-03-01T20:34:34.880Z,53.00
2019-03-01T20:37:27.816Z,53.30
2019-03-01T20:40:22.783Z,53.00
2019-03-01T20:43:15.246Z,52.90
2019-03-01T20:46:08.062Z,52.90
2019-03-01T20:49:00.649Z,53.00
2019-03-01T20:51:54.255Z,52.80
2019-03-01T20:54:46.324Z,52.90
2019-03-01T20:57:38.563Z,52.70
2019-03-01T21:00:30.876Z,52.80
2019-03-01T21:03:24.945Z,52.60
2019-03-01T21:06:16.852Z,52.60
2019-03-01T21:09:09.399Z,52.90
2019-03-01T21:12:01.976Z,52.70
2019-03-01T21:14:55.357Z,52.60
2019-03-01T21:17:47.994Z,52.80
2019-03-01T21:20:40.023Z,52.60
2019-03-01T21:23:32.538Z,52.80
2019-03-01T21:26:24.901Z,52.60
2019-03-01T21:29:17.457Z,52.60
2019-03-01T21:32:11.725Z,52.50
2019-03-01T21:35:03.441Z,52.60
2019-03-01T21:37:56.065Z,52.60
2019-03-01T21:40:49.176Z,52.40
2019-03-01T21:43:41.576Z,52.30
2019-03-01T21:46:34.039Z,52.50
2019-03-01T21:49:27.115Z,52.60
2019-03-01T21:52:19.017Z,52.90
2019-03-01T21:55:11.930Z,52.30
2019-03-01T21:58:06.639Z,52.30
2019-03-01T22:00:58.503Z,52.20
2019-03-01T22:03:50.826Z,52.40
2019-03-01T22:06:43.742Z,52.50
2019-03-01T22:09:35.697Z,52.20
2019-03-01T22:12:32.551Z,52.00
2019-03-01T22:15:26.814Z,51.90
2019-03-01T22:18:20.433Z,51.90
2019-03-01T22:21:12.734Z,52.40
2019-03-01T22:24:05.086Z,51.60
2019-03-01T22:26:57.218Z,51.90
2019-03-01T22:29:49.261Z,51.80
2019-03-01T22:32:42.292Z,51.90
2019-03-01T22:35:34.973Z,52.00
2019-03-01T22:38:27.175Z,52.20
2019-03-01T22:41:22.125Z,51.90
2019-03-01T22:44:14.313Z,52.00
2019-03-01T22:47:06.787Z,51.70
2019-03-01T22:49:59.217Z,51.60
2019-03-01T22:52:51.650Z,52.10
2019-03-01T22:55:43.881Z,51.20
2019-03-01T22:58:36.478Z,50.70
2019-03-01T23:01:48.015Z,51.00
2019-03-01T23:04:40.544Z,50.80
2019-03-01T23:07:33.124Z,51.00
2019-03-01T23:10:25.494Z,50.90
2019-03-01T23:13:20.708Z,50.80
2019-03-01T23:16:15.866Z,50.80
2019-03-01T23:19:07.319Z,50.50
2019-03-01T23:21:59.827Z,50.80
2019-03-01T23:24:52.570Z,51.30
2019-03-01T23:27:45.492Z,51.30
2019-03-01T23:30:38.078Z,51.30
2019-03-01T23:33:31.681Z,51.10
2019-03-01T23:36:28.091Z,50.40
2019-03-01T23:39:21.739Z,51.20
2019-03-01T23:42:12.457Z,51.10
2019-03-01T23:45:04.672Z,50.80
2019-03-01T23:47:56.693Z,50.20
2019-03-01T23:50:48.877Z,50.70
2019-03-01T23:53:41.216Z,51.00
2019-03-01T23:56:34.675Z,50.80
2019-03-01T23:59:27.444Z,50.40
